createdAt,value
2023-01-05T00:01:40.019Z,8.85
2023-01-05T00:04:08.695Z,8.83
2023-01-05T00:06:37.817Z,8.85
2023-01-05T00:09:06.712Z,8.62
2023-01-05T00:11:52.548Z,9.06
2023-01-05T00:14:41.346Z,9.15
2023-01-05T00:17:30.231Z,9.16
2023-01-05T00:20:16.195Z,9.40
2023-01-05T00:22:47.656Z,9.16
2023-01-05T00:25:18.264Z,8.38
2023-01-05T00:27:50.798Z,8.33
2023-01-05T00:30:22.335Z,8.62
2023-01-05T00:32:51.403Z,8.83
2023-01-05T00:35:20.280Z,8.86
2023-01-05T00:37:49.468Z,9.22
2023-01-05T00:40:19.900Z,9.24
2023-01-05T00:42:48.789Z,9.30
2023-01-05T00:45:19.139Z,8.94
2023-01-05T00:47:49.218Z,9.26
2023-01-05T00:50:19.362Z,9.15
2023-01-05T00:52:47.970Z,9.34
2023-01-05T00:55:16.755Z,9.26
2023-01-05T00:57:45.524Z,9.48
2023-01-05T01:00:17.513Z,9.59
2023-01-05T01:02:46.403Z,9.34
2023-01-05T01:05:16.274Z,9.10
2023-01-05T01:07:44.601Z,8.92
2023-01-05T01:10:13.585Z,8.57
2023-01-05T01:12:44.756Z,7.91
2023-01-05T01:15:13.140Z,8.64
2023-01-05T01:17:41.499Z,8.82
2023-01-05T01:20:11.155Z,8.93
2023-01-05T01:22:40.885Z,8.76
2023-01-05T01:25:09.879Z,8.73
2023-01-05T01:27:38.179Z,9.06
2023-01-05T01:30:07.612Z,8.78
2023-01-05T01:32:35.915Z,8.34
2023-01-05T01:35:04.287Z,8.81
2023-01-05T01:37:32.739Z,9.09
2023-01-05T01:40:02.506Z,8.68
2023-01-05T01:42:31.582Z,7.61
2023-01-05T01:45:01.688Z,8.68
2023-01-05T01:47:36.379Z,8.03
2023-01-05T01:50:09.878Z,8.29
2023-01-05T01:52:39.719Z,7.98
2023-01-05T01:55:10.599Z,8.25
2023-01-05T01:57:40.157Z,8.32
2023-01-05T02:00:10.624Z,8.37
2023-01-05T02:02:38.911Z,8.11
2023-01-05T02:05:10.468Z,7.80
2023-01-05T02:07:41.638Z,7.87
2023-01-05T02:10:12.103Z,8.39
2023-01-05T02:12:58.951Z,8.04
2023-01-05T02:15:39.342Z,8.70
2023-01-05T02:18:21.767Z,8.83
2023-01-05T02:21:05.408Z,8.76
2023-01-05T02:23:59.460Z,8.99
2023-01-05T02:27:11.637Z,8.79
2023-01-05T02:30:16.766Z,8.83
2023-01-05T02:32:53.450Z,9.05
2023-01-05T02:35:28.881Z,8.67
2023-01-05T02:38:03.578Z,8.97
2023-01-05T02:40:37.892Z,8.94
2023-01-05T02:43:07.862Z,8.62
2023-01-05T02:45:36.115Z,8.49
2023-01-05T02:48:06.177Z,8.62
2023-01-05T02:50:39.984Z,8.79
2023-01-05T02:53:11.075Z,8.79
2023-01-05T02:55:43.380Z,8.77
2023-01-05T02:58:17.439Z,8.96
2023-01-05T03:00:52.273Z,8.29
2023-01-05T03:03:26.696Z,8.35
2023-01-05T03:05:59.149Z,8.55
2023-01-05T03:08:33.082Z,8.32
2023-01-05T03:11:21.994Z,8.62
2023-01-05T03:13:56.278Z,8.00
2023-01-05T03:16:29.492Z,8.36
2023-01-05T03:19:20.709Z,8.50
2023-01-05T03:22:08.608Z,8.87
2023-01-05T03:24:55.446Z,8.24
2023-01-05T03:27:42.570Z,8.67
2023-01-05T03:30:30.096Z,8.78
2023-01-05T03:33:22.848Z,8.32
2023-01-05T03:35:56.398Z,8.22
2023-01-05T03:38:31.385Z,8.58
2023-01-05T03:41:04.927Z,8.58
2023-01-05T03:43:36.159Z,8.56
2023-01-05T03:46:11.535Z,8.11
2023-01-05T03:48:39.987Z,7.87
2023-01-05T03:51:10.461Z,7.07
2023-01-05T03:53:38.716Z,6.85
2023-01-05T03:56:07.465Z,6.87
2023-01-05T03:58:35.782Z,6.49
2023-01-05T04:01:04.460Z,6.54
2023-01-05T04:03:32.902Z,7.39
2023-01-05T04:06:01.817Z,7.36
2023-01-05T04:08:31.739Z,7.21
2023-01-05T04:11:11.981Z,7.76
2023-01-05T04:13:40.257Z,8.05
2023-01-05T04:16:09.247Z,7.79
2023-01-05T04:18:37.662Z,7.73
2023-01-05T04:21:06.943Z,7.88
2023-01-05T04:23:37.113Z,7.80
2023-01-05T04:26:06.187Z,7.86
2023-01-05T04:28:34.703Z,7.86
2023-01-05T04:31:03.176Z,7.82
2023-01-05T04:33:31.587Z,7.90
2023-01-05T04:35:59.891Z,7.79
2023-01-05T04:38:28.163Z,7.62
2023-01-05T04:40:57.761Z,7.38
2023-01-05T04:43:26.086Z,7.28
2023-01-05T04:45:54.447Z,6.97
2023-01-05T04:48:22.668Z,6.99
2023-01-05T04:50:54.648Z,6.99
2023-01-05T04:53:23.636Z,7.05
2023-01-05T04:55:54.473Z,6.92
2023-01-05T04:58:24.133Z,6.89
2023-01-05T05:00:52.465Z,6.91
2023-01-05T05:03:20.780Z,7.09
2023-01-05T05:05:49.085Z,6.81
2023-01-05T05:08:17.401Z,6.75
2023-01-05T05:10:45.720Z,6.56
2023-01-05T05:13:14.042Z,6.76
2023-01-05T05:15:46.378Z,6.47
2023-01-05T05:18:14.805Z,6.47
2023-01-05T05:20:45.163Z,6.60
2023-01-05T05:23:13.480Z,6.97
2023-01-05T05:25:41.824Z,6.94
2023-01-05T05:28:10.369Z,6.72
2023-01-05T05:30:39.275Z,6.92
2023-01-05T05:33:09.039Z,7.00
2023-01-05T05:35:37.372Z,5.58
2023-01-05T05:38:05.774Z,6.93
2023-01-05T05:40:34.117Z,7.02
2023-01-05T05:43:02.371Z,6.77
2023-01-05T05:45:30.709Z,6.21
2023-01-05T05:48:01.288Z,5.96
2023-01-05T05:50:31.053Z,6.43
2023-01-05T05:52:59.251Z,6.34
2023-01-05T05:55:27.550Z,6.27
2023-01-05T05:57:55.908Z,6.25
2023-01-05T06:00:24.331Z,5.46
2023-01-05T06:02:52.788Z,5.92
2023-01-05T06:05:21.230Z,6.13
2023-01-05T06:07:50.965Z,6.20
2023-01-05T06:10:19.277Z,5.86
2023-01-05T06:12:47.925Z,5.56
2023-01-05T06:15:16.512Z,5.77
2023-01-05T06:17:46.592Z,6.06
2023-01-05T06:20:14.875Z,6.39
2023-01-05T06:22:43.240Z,6.72
2023-01-05T06:25:12.986Z,6.72
2023-01-05T06:27:41.269Z,6.67
2023-01-05T06:30:10.541Z,7.20
2023-01-05T06:32:38.982Z,7.34
2023-01-05T06:35:08.373Z,7.81
2023-01-05T06:37:36.835Z,7.32
2023-01-05T06:40:05.634Z,7.26
2023-01-05T06:42:35.347Z,6.81
2023-01-05T06:45:03.742Z,6.96
2023-01-05T06:47:32.057Z,7.43
2023-01-05T06:50:00.464Z,7.65
2023-01-05T06:52:29.211Z,8.06
2023-01-05T06:54:57.519Z,8.55
2023-01-05T06:57:25.770Z,8.86
2023-01-05T06:59:55.403Z,8.95
2023-01-05T07:02:26.078Z,9.20
2023-01-05T07:04:54.351Z,9.30
2023-01-05T07:07:22.626Z,9.49
2023-01-05T07:09:50.905Z,9.75
2023-01-05T07:12:19.802Z,10.00
2023-01-05T07:14:50.638Z,10.37
2023-01-05T07:17:24.070Z,10.56
2023-01-05T07:19:52.318Z,10.91
2023-01-05T07:22:20.706Z,10.81
2023-01-05T07:24:48.996Z,11.11
2023-01-05T07:27:17.317Z,11.25
2023-01-05T07:29:45.560Z,11.82
2023-01-05T07:32:13.990Z,12.09
2023-01-05T07:34:51.289Z,12.54
2023-01-05T07:37:25.047Z,12.71
2023-01-05T07:39:53.654Z,12.64
2023-01-05T07:42:21.838Z,13.07
2023-01-05T07:44:50.210Z,13.24
2023-01-05T07:47:18.508Z,13.72
2023-01-05T07:49:48.238Z,13.73
2023-01-05T07:52:17.257Z,13.43
2023-01-05T07:54:45.558Z,13.24
2023-01-05T07:57:13.812Z,13.48
2023-01-05T07:59:42.185Z,13.94
2023-01-05T08:02:11.390Z,14.58
2023-01-05T08:04:39.824Z,14.59
2023-01-05T08:07:11.697Z,14.61
2023-01-05T08:09:57.594Z,14.42
2023-01-05T08:12:25.932Z,15.12
2023-01-05T08:14:54.207Z,14.78
2023-01-05T08:17:22.524Z,15.31
2023-01-05T08:19:50.861Z,14.86
2023-01-05T08:22:20.525Z,14.78
2023-01-05T08:24:48.830Z,15.32
2023-01-05T08:27:17.067Z,15.45
2023-01-05T08:29:45.348Z,15.41
2023-01-05T08:32:13.724Z,15.13
2023-01-05T08:34:42.049Z,15.62
2023-01-05T08:37:10.493Z,15.45
2023-01-05T08:39:40.191Z,15.30
2023-01-05T08:42:08.542Z,16.05
2023-01-05T08:44:36.878Z,16.55
2023-01-05T08:47:06.486Z,17.13
2023-01-05T08:49:34.810Z,16.87
2023-01-05T08:52:03.129Z,17.08
2023-01-05T08:54:31.487Z,17.41
2023-01-05T08:57:01.184Z,17.73
2023-01-05T08:59:29.681Z,19.57
2023-01-05T09:01:58.233Z,18.56
2023-01-05T09:04:27.703Z,18.39
2023-01-05T09:06:56.425Z,17.59
2023-01-05T09:09:25.458Z,17.97
2023-01-05T09:11:53.769Z,17.79
2023-01-05T09:14:23.695Z,17.50
2023-01-05T09:17:08.224Z,17.32
2023-01-05T09:19:37.351Z,17.89
2023-01-05T09:22:05.829Z,18.25
2023-01-05T09:24:34.076Z,18.45
2023-01-05T09:27:03.897Z,18.80
2023-01-05T09:29:33.588Z,19.29
2023-01-05T09:32:01.959Z,19.83
2023-01-05T09:34:30.626Z,20.33
2023-01-05T09:36:58.980Z,20.18
2023-01-05T09:39:27.458Z,19.99
2023-01-05T09:41:59.123Z,20.15
2023-01-05T09:44:31.714Z,21.15
2023-01-05T09:47:07.862Z,19.59
2023-01-05T09:49:36.740Z,19.90
2023-01-05T09:52:09.512Z,21.26
2023-01-05T09:54:39.104Z,21.21
2023-01-05T09:57:14.777Z,22.07
2023-01-05T09:59:46.456Z,21.05
2023-01-05T10:02:33.956Z,21.27
2023-01-05T10:05:05.391Z,21.37
2023-01-05T10:07:43.395Z,21.44
2023-01-05T10:10:28.327Z,22.68
2023-01-05T10:13:07.273Z,21.79
2023-01-05T10:15:43.601Z,20.78
2023-01-05T10:18:16.368Z,22.73
2023-01-05T10:21:04.446Z,22.09
2023-01-05T10:23:49.648Z,22.24
2023-01-05T10:26:26.279Z,20.13
2023-01-05T10:29:01.258Z,21.05
2023-01-05T10:31:45.224Z,21.86
2023-01-05T10:34:22.489Z,22.46
2023-01-05T10:37:09.406Z,22.20
2023-01-05T10:40:00.550Z,23.92
2023-01-05T10:42:45.479Z,23.66
2023-01-05T10:45:16.019Z,23.52
2023-01-05T10:47:46.432Z,24.26
2023-01-05T10:50:36.879Z,22.66
2023-01-05T10:53:10.785Z,22.92
2023-01-05T10:55:46.918Z,22.61
2023-01-05T10:58:26.178Z,22.93
2023-01-05T11:00:57.011Z,22.88
2023-01-05T11:04:23.837Z,23.49
2023-01-05T11:06:31.592Z,24.43
2023-01-05T11:09:08.553Z,24.75
2023-01-05T11:11:37.010Z,24.84
2023-01-05T11:14:07.105Z,24.84
2023-01-05T11:16:38.533Z,23.87
2023-01-05T11:19:14.178Z,23.51
2023-01-05T11:21:46.068Z,23.69
2023-01-05T11:24:32.446Z,23.12
2023-01-05T11:27:03.382Z,23.40
2023-01-05T11:29:32.126Z,23.96
2023-01-05T11:32:02.609Z,23.38
2023-01-05T11:34:43.520Z,22.05
2023-01-05T11:37:26.279Z,23.86
2023-01-05T11:39:56.984Z,24.17
2023-01-05T11:42:33.608Z,22.57
2023-01-05T11:45:05.062Z,23.45
2023-01-05T11:47:43.757Z,23.51
2023-01-05T11:50:22.692Z,23.85
2023-01-05T11:52:54.166Z,23.62
2023-01-05T11:55:35.195Z,23.81
2023-01-05T11:58:19.261Z,24.07
2023-01-05T12:01:34.240Z,22.54
2023-01-05T12:04:11.726Z,23.50
2023-01-05T12:06:58.209Z,24.25
2023-01-05T12:09:34.997Z,23.46
2023-01-05T12:12:40.882Z,23.05
2023-01-05T12:15:43.210Z,22.89
2023-01-05T12:18:34.063Z,24.46
2023-01-05T12:21:09.103Z,24.06
2023-01-05T12:24:07.228Z,24.43
2023-01-05T12:26:43.938Z,25.63
2023-01-05T12:36:09.394Z,25.00
2023-01-05T12:38:46.349Z,25.21
2023-01-05T12:41:35.713Z,24.80
2023-01-05T12:44:24.635Z,23.85
2023-01-05T12:47:08.299Z,24.72
2023-01-05T12:49:42.017Z,25.46
2023-01-05T12:52:17.615Z,22.15
2023-01-05T12:54:53.237Z,22.85
2023-01-05T12:57:28.513Z,23.23
2023-01-05T13:00:05.127Z,24.09
2023-01-05T13:02:40.310Z,24.28
2023-01-05T13:05:15.208Z,23.89
2023-01-05T13:07:50.946Z,24.49
2023-01-05T13:10:24.062Z,24.23
2023-01-05T13:13:02.577Z,23.46
2023-01-05T13:15:40.429Z,23.93
2023-01-05T13:18:16.241Z,22.69
2023-01-05T13:20:48.324Z,21.77
2023-01-05T13:23:20.117Z,22.23
2023-01-05T13:25:55.421Z,21.47
2023-01-05T13:28:28.403Z,20.67
2023-01-05T13:31:22.671Z,21.17
2023-01-05T13:34:09.933Z,20.04
2023-01-05T13:36:53.587Z,20.78
2023-01-05T13:40:06.792Z,20.36
2023-01-05T13:42:59.889Z,19.71
2023-01-05T13:46:12.658Z,20.36
2023-01-05T13:49:12.173Z,20.00
2023-01-05T13:52:00.015Z,20.10
2023-01-05T13:54:49.177Z,19.62
2023-01-05T13:57:26.251Z,20.34
2023-01-05T14:00:06.502Z,19.57
2023-01-05T14:02:39.071Z,19.30
2023-01-05T14:05:16.930Z,17.95
2023-01-05T14:07:45.370Z,17.15
2023-01-05T14:10:22.955Z,16.54
2023-01-05T14:12:54.328Z,16.50
2023-01-05T14:15:38.227Z,15.53
2023-01-05T14:18:07.193Z,15.84
2023-01-05T14:20:47.007Z,16.55
2023-01-05T14:24:07.443Z,17.08
2023-01-05T14:27:00.866Z,16.66
2023-01-05T14:30:02.555Z,16.22
2023-01-05T14:32:33.916Z,16.22
2023-01-05T14:35:09.614Z,15.77
2023-01-05T14:37:41.792Z,15.36
2023-01-05T14:40:26.348Z,14.45
2023-01-05T14:42:55.281Z,13.54
2023-01-05T14:45:28.250Z,13.70
2023-01-05T14:47:58.800Z,13.36
2023-01-05T14:50:31.382Z,12.77
2023-01-05T14:53:04.771Z,12.59
2023-01-05T14:55:39.578Z,12.61
2023-01-05T14:58:14.429Z,12.69
2023-01-05T15:00:49.605Z,13.03
2023-01-05T15:03:28.235Z,12.41
2023-01-05T15:06:05.004Z,11.90
2023-01-05T15:09:01.986Z,12.53
2023-01-05T15:11:58.401Z,11.77
2023-01-05T15:15:02.217Z,11.78
2023-01-05T15:18:05.871Z,11.82
2023-01-05T15:21:02.636Z,11.66
2023-01-05T15:24:18.339Z,12.52
2023-01-05T15:27:12.555Z,12.34
2023-01-05T15:30:03.853Z,12.01
2023-01-05T15:32:35.710Z,12.01
2023-01-05T15:35:11.174Z,12.23
2023-01-05T15:37:41.519Z,12.05
2023-01-05T15:40:29.397Z,12.15
2023-01-05T15:43:03.076Z,11.71
2023-01-05T15:45:33.824Z,11.69
2023-01-05T15:48:09.369Z,10.91
2023-01-05T15:50:45.745Z,11.86
2023-01-05T15:53:26.177Z,11.42
2023-01-05T15:55:54.481Z,11.01
2023-01-05T15:58:25.851Z,10.94
2023-01-05T16:01:08.269Z,10.90
2023-01-05T16:03:38.180Z,11.07
2023-01-05T16:06:10.161Z,11.14
2023-01-05T16:08:43.690Z,11.61
2023-01-05T16:11:15.023Z,11.60
2023-01-05T16:13:50.392Z,11.40
2023-01-05T16:16:50.448Z,11.52
2023-01-05T16:19:18.855Z,11.75
2023-01-05T16:21:54.062Z,11.82
2023-01-05T16:24:27.516Z,11.75
2023-01-05T16:26:56.181Z,11.77
2023-01-05T16:29:39.804Z,11.64
2023-01-05T16:32:29.781Z,11.28
2023-01-05T16:35:23.560Z,11.60
2023-01-05T16:38:16.366Z,10.90
2023-01-05T16:41:03.531Z,10.47
2023-01-05T16:43:36.707Z,10.10
2023-01-05T16:46:41.154Z,10.60
2023-01-05T16:49:41.025Z,10.04
2023-01-05T16:52:24.389Z,9.30
2023-01-05T16:55:19.992Z,9.92
2023-01-05T16:57:52.293Z,10.53
2023-01-05T17:00:39.467Z,10.49
2023-01-05T17:03:30.780Z,9.53
2023-01-05T17:06:00.760Z,9.22
2023-01-05T17:08:31.967Z,9.40
2023-01-05T17:11:03.054Z,9.47
2023-01-05T17:13:38.863Z,9.16
2023-01-05T17:16:08.266Z,9.30
2023-01-05T17:18:38.207Z,9.14
2023-01-05T17:21:07.892Z,9.66
2023-01-05T17:23:42.315Z,10.10
2023-01-05T17:26:13.029Z,9.93
2023-01-05T17:28:43.082Z,9.66
2023-01-05T17:33:41.402Z,9.50
2023-01-05T17:36:09.898Z,9.21
2023-01-05T17:38:38.587Z,9.83
2023-01-05T17:41:06.969Z,10.02
2023-01-05T17:43:35.295Z,9.65
2023-01-05T17:46:03.775Z,9.29
2023-01-05T17:48:32.158Z,8.77
2023-01-05T17:51:01.970Z,8.81
2023-01-05T17:53:30.313Z,9.04
2023-01-05T17:55:58.573Z,9.38
2023-01-05T17:58:27.382Z,9.17
2023-01-05T18:00:55.907Z,9.51
2023-01-05T18:03:24.254Z,9.75
2023-01-05T18:05:54.239Z,9.83
2023-01-05T18:08:23.915Z,9.74
2023-01-05T18:10:52.230Z,9.94
2023-01-05T18:13:22.558Z,10.01
2023-01-05T18:15:53.298Z,9.81
2023-01-05T18:18:22.593Z,9.85
2023-01-05T18:20:51.812Z,9.70
2023-01-05T18:23:21.952Z,9.86
2023-01-05T18:25:51.618Z,9.72
2023-01-05T18:28:19.942Z,9.89
2023-01-05T18:30:51.542Z,9.67
2023-01-05T18:33:20.098Z,9.61
2023-01-05T18:35:50.662Z,9.61
2023-01-05T18:38:22.440Z,9.52
2023-01-05T18:40:52.100Z,9.38
2023-01-05T18:43:20.378Z,9.42
2023-01-05T18:45:56.166Z,9.44
2023-01-05T18:48:24.691Z,9.43
2023-01-05T18:50:52.996Z,9.20
2023-01-05T18:53:23.099Z,9.15
2023-01-05T18:55:53.222Z,7.91
2023-01-05T18:58:21.459Z,8.38
2023-01-05T19:00:49.679Z,8.34
2023-01-05T19:03:18.086Z,8.64
2023-01-05T19:05:46.432Z,8.85
2023-01-05T19:08:15.065Z,8.91
2023-01-05T19:10:43.418Z,9.01
2023-01-05T19:13:13.158Z,9.06
2023-01-05T19:15:41.436Z,8.92
2023-01-05T19:18:10.234Z,8.82
2023-01-05T19:20:38.999Z,8.74
2023-01-05T19:23:07.333Z,8.89
2023-01-05T19:25:39.158Z,8.49
2023-01-05T19:28:07.504Z,7.49
2023-01-05T19:30:39.443Z,7.02
2023-01-05T19:33:07.770Z,8.04
2023-01-05T19:35:36.385Z,8.54
2023-01-05T19:38:04.839Z,8.69
2023-01-05T19:40:33.164Z,8.28
2023-01-05T19:43:01.536Z,8.49
2023-01-05T19:45:29.866Z,8.64
2023-01-05T19:48:00.575Z,8.06
2023-01-05T19:50:32.647Z,8.70
2023-01-05T19:53:00.999Z,8.56
2023-01-05T19:55:29.586Z,8.69
2023-01-05T19:58:07.462Z,8.70
2023-01-05T20:00:36.178Z,8.50
2023-01-05T20:03:07.184Z,8.55
2023-01-05T20:05:35.664Z,8.47
2023-01-05T20:08:10.950Z,8.55
2023-01-05T20:10:42.159Z,8.41
2023-01-05T20:13:14.334Z,8.29
2023-01-05T20:15:42.777Z,7.87
2023-01-05T20:18:16.484Z,7.76
2023-01-05T20:20:45.448Z,7.90
2023-01-05T20:23:14.974Z,8.02
2023-01-05T20:25:43.829Z,7.88
2023-01-05T20:28:12.954Z,7.03
2023-01-05T20:30:41.299Z,6.94
2023-01-05T20:33:09.562Z,6.72
2023-01-05T20:35:42.452Z,7.06
2023-01-05T20:38:10.722Z,7.36
2023-01-05T20:40:39.004Z,7.73
2023-01-05T20:43:07.415Z,7.83
2023-01-05T20:45:35.888Z,7.97
2023-01-05T20:48:06.082Z,8.08
2023-01-05T20:50:34.442Z,8.05
2023-01-05T20:53:04.338Z,7.81
2023-01-05T20:55:32.697Z,7.80
2023-01-05T20:58:01.031Z,7.89
2023-01-05T21:00:29.315Z,7.85
2023-01-05T21:02:57.693Z,7.76
2023-01-05T21:05:26.010Z,7.76
2023-01-05T21:07:54.299Z,7.82
2023-01-05T21:10:24.024Z,7.56
2023-01-05T21:12:52.435Z,7.74
2023-01-05T21:15:20.886Z,7.75
2023-01-05T21:17:49.124Z,7.85
2023-01-05T21:20:17.611Z,7.67
2023-01-05T21:22:45.933Z,7.63
2023-01-05T21:25:14.641Z,7.66
2023-01-05T21:27:44.402Z,7.28
2023-01-05T21:30:13.761Z,7.30
2023-01-05T21:32:42.465Z,7.45
2023-01-05T21:35:11.275Z,7.48
2023-01-05T21:37:39.549Z,7.50
2023-01-05T21:40:09.356Z,7.56
2023-01-05T21:42:45.377Z,7.43
2023-01-05T21:45:15.193Z,7.44
2023-01-05T21:47:43.523Z,7.39
2023-01-05T21:50:34.364Z,7.35
2023-01-05T21:53:16.882Z,6.81
2023-01-05T21:56:22.889Z,6.91
2023-01-05T21:58:51.243Z,7.09
2023-01-05T22:01:21.131Z,7.13
2023-01-05T22:03:50.203Z,7.05
2023-01-05T22:06:18.509Z,6.77
2023-01-05T22:08:47.108Z,6.60
2023-01-05T22:11:15.486Z,6.84
2023-01-05T22:13:43.691Z,7.19
2023-01-05T22:16:12.177Z,7.13
2023-01-05T22:18:41.934Z,7.17
2023-01-05T22:21:11.272Z,7.25
2023-01-05T22:23:39.751Z,6.99
2023-01-05T22:26:10.366Z,7.00
2023-01-05T22:28:41.937Z,7.09
2023-01-05T22:31:12.209Z,7.03
2023-01-05T22:33:44.188Z,7.02
2023-01-05T22:36:14.489Z,6.78
2023-01-05T22:38:44.449Z,7.05
2023-01-05T22:41:15.349Z,6.81
2023-01-05T22:43:44.630Z,6.59
2023-01-05T22:46:15.045Z,6.32
2023-01-05T22:48:49.361Z,5.81
2023-01-05T22:51:19.999Z,6.11
2023-01-05T22:53:49.447Z,6.08
2023-01-05T22:56:19.138Z,6.12
2023-01-05T22:58:47.541Z,6.88
2023-01-05T23:01:21.095Z,6.64
2023-01-05T23:03:51.479Z,6.64
2023-01-05T23:06:20.809Z,6.06
2023-01-05T23:08:50.316Z,5.84
2023-01-05T23:11:20.805Z,5.94
2023-01-05T23:13:49.971Z,5.59
2023-01-05T23:16:18.664Z,5.41
2023-01-05T23:18:48.478Z,5.66
2023-01-05T23:21:19.334Z,5.89
2023-01-05T23:23:48.049Z,6.06
2023-01-05T23:26:17.587Z,6.09
2023-01-05T23:28:46.225Z,5.81
2023-01-05T23:31:16.490Z,6.01
2023-01-05T23:33:45.543Z,6.36
2023-01-05T23:36:15.737Z,5.59
2023-01-05T23:38:46.321Z,5.96
2023-01-05T23:41:16.205Z,6.12
2023-01-05T23:43:46.598Z,6.22
2023-01-05T23:46:17.171Z,6.08
2023-01-05T23:48:45.646Z,6.50
2023-01-05T23:51:16.541Z,5.86
2023-01-05T23:53:50.124Z,6.67
2023-01-05T23:56:20.888Z,6.46
2023-01-05T23:58:50.112Z,6.48
